Lake Junaluska, NC (28745)

7:37 AM EST on November 26, 2014 (GMT -0500)
Utah Mountain Rockface | Change Station
CLOSE
Current Station
Personal Weather Station
Location: Waynesville, NC
Elevation: 3500 ft
Nearby Weather Stations
Active Advisory: Winter Weather Advisory Active Notice: Local Storm Report

Elev 3500 ft 35.55 °N, 82.98 °W | Updated 8 seconds ago

Snow
Snow
34.0 °F
Feels Like 34 °F
N
0.0
Wind Variable Wind from ESE
Gusts 0.0 mph

Today
High -- | Low -- °F
--% Chance of Precip.
Yesterday
High -- | Low -- °F
Precip. -- in
7:18 AM 5:20 PM
Waxing Crescent, 19% visible
Pressure 29.97 in
Visibility 7.0 miles
Clouds Scattered Clouds 1300 ft
Mostly Cloudy 2900 ft
Overcast 3700 ft
Windchill 34 °F
Dew Point 33 °F
Humidity 97%
Rainfall 0.20 in
Snow Depth Not available.
UV 0 out of 12
Pollen .30 out of 12
Air Quality Not available.
Flu Activity Not available.
SPECI KAVL 261202Z 35007KT 7SM RA SCT013 BKN029 OVC037 04/03 A2997 RMK AO2 P0002 T00440028

More Conditions Fewer Conditions

Pressure 29.97 in
Visibility 7.0 miles
Clouds Scattered Clouds 1300 ft
Mostly Cloudy 2900 ft
Overcast 3700 ft
Windchill 34 °F
Dew Point 33 °F
Humidity 97%
Rainfall 0.20 in
Snow Depth Not available.
UV 0 out of 12
Pollen .30 out of 12
Air Quality Not available.
Flu Activity Not available.
SPECI KAVL 261202Z 35007KT 7SM RA SCT013 BKN029 OVC037 04/03 A2997 RMK AO2 P0002 T00440028

More Conditions Fewer Conditions

10-Day Weather Forecast

Almanac

Astronomy

Nov. 26, 2014 Rise Set
Actual Time
Civil Twilight
Nautical Twilight
Astronomical Twilight
Moon
Length of Visible Light
Length of Day
Tomorrow will be .
, % of the Moon is Illuminated

Today's Extremes

State Highs State Lows

Community

WunderPhotos

Upload Photos

1,773,713 photos uploaded!

WunderBlogs® & News

Nearby

Air Quality

  Air Quality AQ Index Pollutant
Not available.

Snow Depth

Station Depth Elevation

Earthquake Activity

City Distance Mag. Time & Date
Minimum magnitude displayed is 2.5.

Coastal Water Temperatures

Place Temperature

Nearby Weather Stations